Time;durP1;ratioP1;P1;durP2;ratioP2;P2;SDS_P1;SDS_P2;PMS_P1;PMS_P2;Temp;Humidity;BMP_temperature;BMP_pressure;BME280_temperature;BME280_humidity;BME280_pressure;Samples;Min_cycle;Max_cycle;Signal;HPM_P1;HPM_P2
2023/01/17 00:16:45;;;;;;;9.80;8.90;;;;;;;4.51;100.00;98635.58;102165;1303;63702;-63
2023/01/17 01:35:35;;;;;;;9.30;7.50;;;;;;;-128.00;-1.00;-1.00;101819;1254;1015728;-63
2023/01/17 01:38:02;;;;;;;7.80;7.00;;;;;;;-128.00;-1.00;-1.00;101631;1253;1004319;-63
2023/01/17 01:40:30;;;;;;;9.50;7.20;;;;;;;-128.00;-1.00;-1.00;101802;1256;1002964;-63
2023/01/17 01:42:58;;;;;;;8.50;7.70;;;;;;;-128.00;-1.00;-1.00;101860;1254;1004012;-62
2023/01/17 01:45:27;;;;;;;9.00;7.80;;;;;;;-128.00;-1.00;-1.00;101809;1254;1013567;-62
2023/01/17 01:48:16;;;;;;;9.50;7.80;;;;;;;-128.00;-1.00;-1.00;101674;1257;1016578;-62
2023/01/17 01:50:43;;;;;;;9.50;7.90;;;;;;;-128.00;-1.00;-1.00;101810;1257;1012073;-62
2023/01/17 01:53:10;;;;;;;10.50;8.40;;;;;;;-128.00;-1.00;-1.00;101926;1264;1002737;-62
2023/01/17 01:55:39;;;;;;;9.20;8.30;;;;;;;-128.00;-1.00;-1.00;101837;1253;1003407;-63
2023/01/17 01:58:14;;;;;;;9.30;7.80;;;;;;;-128.00;-1.00;-1.00;101778;1253;1013620;-63
2023/01/17 02:00:41;;;;;;;7.90;7.00;;;;;;;-128.00;-1.00;-1.00;101891;1252;1013240;-62
2023/01/17 02:03:23;;;;;;;8.30;7.40;;;;;;;-128.00;-1.00;-1.00;101869;1254;1005260;-62
2023/01/17 02:05:50;;;;;;;9.20;7.40;;;;;;;-128.00;-1.00;-1.00;101773;1251;1010934;-62
2023/01/17 06:44:46;;;;;;;22.90;17.60;;;;;;;4.41;100.00;98432.85;102840;1284;615749;-58
2023/01/17 06:47:13;;;;;;;24.10;19.10;;;;;;;-128.00;-1.00;-1.00;101217;1269;1013233;-60
2023/01/17 06:49:40;;;;;;;27.40;16.70;;;;;;;-128.00;-1.00;-1.00;101063;1269;1003033;-60
2023/01/17 06:52:09;;;;;;;21.10;15.70;;;;;;;-128.00;-1.00;-1.00;100927;1272;1012531;-61
2023/01/17 06:54:36;;;;;;;20.20;14.90;;;;;;;-128.00;-1.00;-1.00;100997;1273;1003483;-61
2023/01/17 06:57:03;;;;;;;19.30;14.30;;;;;;;-128.00;-1.00;-1.00;100951;1269;1002862;-61
2023/01/17 06:59:31;;;;;;;19.40;14.30;;;;;;;-128.00;-1.00;-1.00;100747;1265;1011221;-61
2023/01/17 07:01:59;;;;;;;21.80;14.50;;;;;;;-128.00;-1.00;-1.00;101397;1266;1003800;-61
2023/01/17 07:04:26;;;;;;;16.70;13.20;;;;;;;-74.28;39.40;39358.66;102016;1270;1003799;-61
2023/01/17 07:06:54;;;;;;;18.70;14.50;;;;;;;6.25;100.00;98398.12;104270;1276;60572;-60
2023/01/17 07:09:21;;;;;;;20.50;14.10;;;;;;;6.27;100.00;98399.43;103751;1271;72638;-62
2023/01/17 07:11:50;;;;;;;21.60;13.50;;;;;;;6.31;100.00;98404.81;103571;1279;60947;-64
2023/01/17 07:14:18;;;;;;;18.40;13.00;;;;;;;6.33;100.00;98408.23;103856;1270;60818;-62
2023/01/17 07:16:48;;;;;;;;;;;;;;;6.36;100.00;98406.55;103614;1271;73673;-61
2023/01/17 07:19:16;;;;;;;17.20;13.00;;;;;;;6.35;100.00;98407.80;104680;1265;69271;-61
2023/01/17 07:21:44;;;;;;;16.40;12.80;;;;;;;6.35;100.00;98411.30;104176;1265;73492;-63
2023/01/17 07:24:11;;;;;;;19.60;14.00;;;;;;;6.36;100.00;98410.72;104221;1265;60872;-60
2023/01/17 07:26:39;;;;;;;18.10;14.00;;;;;;;6.36;100.00;98416.45;104141;1276;60866;-64
2023/01/17 07:29:07;;;;;;;17.80;13.40;;;;;;;-128.00;-1.00;-1.00;101506;1264;1013267;-62
2023/01/17 07:31:36;;;;;;;17.80;14.20;;;;;;;-128.00;-1.00;-1.00;101391;1260;1003365;-63
2023/01/17 07:34:04;;;;;;;19.00;15.10;;;;;;;-128.00;-1.00;-1.00;101362;1263;1012576;-59
2023/01/17 07:36:33;;;;;;;19.30;13.70;;;;;;;-128.00;-1.00;-1.00;101800;1262;1010146;-60
2023/01/17 07:39:01;;;;;;;22.90;14.90;;;;;;;-128.00;-1.00;-1.00;101809;1259;1002878;-60
2023/01/17 07:41:39;;;;;;;18.60;14.60;;;;;;;-128.00;-1.00;-1.00;101778;1254;1013236;-61
2023/01/17 07:44:11;;;;;;;18.50;12.70;;;;;;;-128.00;-1.00;-1.00;101722;1270;1012887;-62
2023/01/17 07:46:39;;;;;;;17.00;13.50;;;;;;;-128.00;-1.00;-1.00;101812;1255;1012955;-68
2023/01/17 07:49:07;;;;;;;16.70;13.10;;;;;;;-128.00;-1.00;-1.00;101593;1261;1011294;-66
2023/01/17 07:51:35;;;;;;;17.80;13.20;;;;;;;-128.00;-1.00;-1.00;101771;1260;1002747;-63
2023/01/17 07:54:06;;;;;;;17.50;12.40;;;;;;;-128.00;-1.00;-1.00;101564;1257;1004095;-65
2023/01/17 07:56:36;;;;;;;18.10;12.90;;;;;;;-128.00;-1.00;-1.00;101959;1255;1014042;-60
2023/01/17 07:59:04;;;;;;;;;;;;;;;-128.00;-1.00;-1.00;101386;1257;1003965;-59
2023/01/17 08:01:31;;;;;;;16.30;12.80;;;;;;;-128.00;-1.00;-1.00;101830;1258;1002583;-61
2023/01/17 08:04:08;;;;;;;17.10;12.10;;;;;;;-128.00;-1.00;-1.00;101822;1262;1010622;-63
2023/01/17 08:06:36;;;;;;;16.30;11.50;;;;;;;-128.00;-1.00;-1.00;101802;1262;1012557;-61
2023/01/17 08:09:05;;;;;;;17.20;11.80;;;;;;;-128.00;-1.00;-1.00;101674;1257;1013424;-64
2023/01/17 08:11:33;;;;;;;15.30;12.00;;;;;;;-128.00;-1.00;-1.00;101933;1262;1002596;-61
2023/01/17 08:14:01;;;;;;;;;;;;;;;-128.00;-1.00;-1.00;101860;1257;1002902;-67
2023/01/17 09:59:52;;;;;;;22.50;16.90;;;;;;;5.40;100.00;98298.16;101870;1292;617547;-63
2023/01/17 10:02:51;;;;;;;29.90;20.10;;;;;;;-128.00;-1.00;-1.00;101327;1267;1011075;-63
2023/01/17 10:05:24;;;;;;;24.00;18.60;;;;;;;-128.00;-1.00;-1.00;101462;1267;1011347;-64
2023/01/17 10:07:57;;;;;;;24.20;17.90;;;;;;;-128.00;-1.00;-1.00;100747;1269;1014144;-65
2023/01/17 10:10:31;;;;;;;28.50;17.80;;;;;;;-128.00;-1.00;-1.00;101230;1267;1012749;-63
2023/01/17 10:13:03;;;;;;;18.70;16.00;;;;;;;-128.00;-1.00;-1.00;101371;1264;1012644;-67
2023/01/17 10:15:47;;;;;;;22.70;15.90;;;;;;;-128.00;-1.00;-1.00;101417;1263;1009804;-62
2023/01/17 10:18:20;;;;;;;23.30;16.90;;;;;;;-128.00;-1.00;-1.00;101736;1264;1011863;-62
2023/01/17 10:21:04;;;;;;;24.10;16.10;;;;;;;-128.00;-1.00;-1.00;101876;1263;1012671;-61
2023/01/17 10:23:45;;;;;;;20.70;15.40;;;;;;;-128.00;-1.00;-1.00;101966;1263;1013625;-63
2023/01/17 10:26:16;;;;;;;22.70;16.40;;;;;;;-128.00;-1.00;-1.00;102224;1263;1013596;-62
2023/01/17 10:28:47;;;;;;;25.70;17.60;;;;;;;-128.00;-1.00;-1.00;102501;1257;1009855;-63
2023/01/17 10:31:19;;;;;;;22.80;16.40;;;;;;;-128.00;-1.00;-1.00;101997;1258;1011676;-62
2023/01/17 10:33:54;;;;;;;20.90;16.30;;;;;;;-128.00;-1.00;-1.00;102252;1257;1012699;-62
2023/01/17 10:36:38;;;;;;;22.80;15.10;;;;;;;-128.00;-1.00;-1.00;102279;1256;1013005;-64
2023/01/17 10:39:20;;;;;;;22.80;16.30;;;;;;;-128.00;-1.00;-1.00;102663;1254;1012784;-65
2023/01/17 10:41:54;;;;;;;24.30;15.70;;;;;;;-128.00;-1.00;-1.00;102165;1256;1012697;-65
2023/01/17 10:44:43;;;;;;;24.40;15.70;;;;;;;-128.00;-1.00;-1.00;101865;1258;1011397;-63
2023/01/17 10:47:10;;;;;;;20.20;15.10;;;;;;;-128.00;-1.00;-1.00;101857;1259;1015066;-65
2023/01/17 10:49:39;;;;;;;21.60;15.80;;;;;;;-128.00;-1.00;-1.00;101877;1254;1002705;-64
2023/01/17 10:52:15;;;;;;;20.80;15.10;;;;;;;-128.00;-1.00;-1.00;101834;1254;1016221;-65
2023/01/17 10:55:03;;;;;;;23.70;15.60;;;;;;;-128.00;-1.00;-1.00;102123;1254;1010487;-65
2023/01/17 10:57:41;;;;;;;23.20;15.40;;;;;;;-128.00;-1.00;-1.00;101997;1254;1011280;-65
2023/01/17 11:00:38;;;;;;;21.80;17.10;;;;;;;-128.00;-1.00;-1.00;102030;1254;1012754;-62
2023/01/17 11:03:06;;;;;;;21.90;15.60;;;;;;;-128.00;-1.00;-1.00;102072;1256;1012697;-62
2023/01/17 11:05:33;;;;;;;21.50;15.70;;;;;;;-128.00;-1.00;-1.00;102123;1253;1004648;-63
2023/01/17 11:08:01;;;;;;;24.00;15.50;;;;;;;-128.00;-1.00;-1.00;102272;1254;1004339;-63
2023/01/17 11:10:42;;;;;;;23.60;15.40;;;;;;;-128.00;-1.00;-1.00;102094;1253;1002461;-64
2023/01/17 11:13:21;;;;;;;23.30;16.50;;;;;;;-128.00;-1.00;-1.00;102080;1254;1012794;-63
2023/01/17 11:15:50;;;;;;;23.20;15.20;;;;;;;-128.00;-1.00;-1.00;101888;1254;1012801;-62
2023/01/17 11:18:18;;;;;;;26.80;15.00;;;;;;;-128.00;-1.00;-1.00;101918;1254;1012619;-64
2023/01/17 11:20:45;;;;;;;26.20;16.50;;;;;;;-128.00;-1.00;-1.00;101787;1254;1011116;-62
2023/01/17 11:23:17;;;;;;;20.40;14.90;;;;;;;-128.00;-1.00;-1.00;101876;1254;1003442;-66
2023/01/17 11:25:48;;;;;;;25.60;15.70;;;;;;;-128.00;-1.00;-1.00;101915;1254;1012626;-63
2023/01/17 11:28:20;;;;;;;22.60;15.60;;;;;;;-128.00;-1.00;-1.00;102117;1254;1013987;-64
2023/01/17 11:30:51;;;;;;;21.40;15.10;;;;;;;-128.00;-1.00;-1.00;101991;1254;1013124;-64
2023/01/17 11:33:34;;;;;;;21.60;14.50;;;;;;;-128.00;-1.00;-1.00;102081;1253;1010732;-61
2023/01/17 11:36:01;;;;;;;19.30;15.00;;;;;;;-128.00;-1.00;-1.00;102316;1254;1014413;-62
2023/01/17 11:38:29;;;;;;;27.60;16.80;;;;;;;-128.00;-1.00;-1.00;102294;1256;1002104;-64
2023/01/17 11:41:18;;;;;;;21.90;15.10;;;;;;;-128.00;-1.00;-1.00;102552;1256;1002709;-65
2023/01/17 11:43:52;;;;;;;20.90;15.40;;;;;;;-128.00;-1.00;-1.00;102255;1254;1013229;-63
2023/01/17 11:46:19;;;;;;;26.50;16.80;;;;;;;-128.00;-1.00;-1.00;102067;1253;1010445;-61
2023/01/17 11:48:54;;;;;;;20.40;15.90;;;;;;;-128.00;-1.00;-1.00;102104;1256;1004293;-61
2023/01/17 11:51:34;;;;;;;26.60;14.70;;;;;;;-128.00;-1.00;-1.00;102067;1253;1012972;-61
2023/01/17 11:54:38;;;;;;;20.80;14.90;;;;;;;-128.00;-1.00;-1.00;102203;1256;1012011;-61
2023/01/17 11:57:07;;;;;;;22.00;14.70;;;;;;;-128.00;-1.00;-1.00;102232;1254;1012643;-62
2023/01/17 11:59:37;;;;;;;23.90;14.90;;;;;;;-128.00;-1.00;-1.00;102225;1254;1010534;-61
2023/01/17 12:02:30;;;;;;;23.60;16.10;;;;;;;-128.00;-1.00;-1.00;102918;1253;1010856;-62
2023/01/17 12:05:27;;;;;;;24.10;15.10;;;;;;;-128.00;-1.00;-1.00;102474;1254;1012179;-64
2023/01/17 12:08:00;;;;;;;22.30;15.60;;;;;;;-128.00;-1.00;-1.00;101923;1262;1013061;-62
2023/01/17 12:10:46;;;;;;;21.40;15.40;;;;;;;-128.00;-1.00;-1.00;102346;1256;1013441;-62
2023/01/17 12:16:30;;;;;;;22.70;15.90;;;;;;;-128.00;-1.00;-1.00;102191;1255;1012248;-61
2023/01/17 17:49:32;;;;;;;18.10;13.20;;;;;;;6.09;100.00;98249.91;103975;1290;600881;-65
2023/01/17 17:52:06;;;;;;;27.10;17.60;;;;;;;6.92;100.00;98287.73;103403;1287;62381;-66
2023/01/17 17:54:33;;;;;;;23.30;16.80;;;;;;;-100.98;19.20;19655.94;101551;1270;1004029;-66
2023/01/17 17:57:00;;;;;;;24.50;17.00;;;;;;;-128.00;-1.00;-1.00;101131;1268;1015735;-64
2023/01/17 17:59:28;;;;;;;23.30;16.50;;;;;;;-128.00;-1.00;-1.00;100998;1272;1002428;-66
2023/01/17 18:01:57;;;;;;;25.20;17.00;;;;;;;-128.00;-1.00;-1.00;100801;1270;1003535;-65
2023/01/17 18:04:24;;;;;;;28.20;18.30;;;;;;;-128.00;-1.00;-1.00;101096;1267;1010081;-66
2023/01/17 18:06:55;;;;;;;28.50;17.90;;;;;;;-128.00;-1.00;-1.00;100958;1267;1002360;-64
2023/01/17 18:09:22;;;;;;;28.20;18.20;;;;;;;-128.00;-1.00;-1.00;100989;1267;1013325;-66
2023/01/17 18:11:50;;;;;;;23.00;16.80;;;;;;;-128.00;-1.00;-1.00;100978;1267;1002898;-66
2023/01/17 18:14:19;;;;;;;30.60;18.30;;;;;;;-128.00;-1.00;-1.00;100961;1267;1002552;-65
2023/01/17 18:16:47;;;;;;;24.20;18.10;;;;;;;-128.00;-1.00;-1.00;100841;1268;1010125;-65
2023/01/17 18:19:16;;;;;;;27.20;17.60;;;;;;;-128.00;-1.00;-1.00;100872;1271;1003930;-64
2023/01/17 18:21:43;;;;;;;23.00;17.00;;;;;;;-128.00;-1.00;-1.00;100780;1266;1012361;-63
2023/01/17 18:24:14;;;;;;;20.40;15.20;;;;;;;-128.00;-1.00;-1.00;100879;1267;1002620;-63
2023/01/17 18:26:44;;;;;;;21.40;15.20;;;;;;;-128.00;-1.00;-1.00;100658;1267;1012865;-64
2023/01/17 18:29:16;;;;;;;21.60;15.40;;;;;;;-128.00;-1.00;-1.00;100916;1268;1010487;-65
2023/01/17 18:31:44;;;;;;;21.40;15.40;;;;;;;-128.00;-1.00;-1.00;100717;1268;1011121;-65
2023/01/17 18:34:20;;;;;;;18.80;15.50;;;;;;;-128.00;-1.00;-1.00;100710;1268;1002733;-64
2023/01/17 18:36:47;;;;;;;25.60;14.80;;;;;;;-128.00;-1.00;-1.00;101115;1268;1015824;-65
2023/01/17 18:39:19;;;;;;;21.70;14.50;;;;;;;-128.00;-1.00;-1.00;100861;1267;1003882;-67
2023/01/17 18:41:48;;;;;;;20.50;14.60;;;;;;;-128.00;-1.00;-1.00;100775;1266;1010778;-64
2023/01/17 18:44:15;;;;;;;;;;;;;;;-128.00;-1.00;-1.00;101089;1271;1002908;-63
2023/01/17 18:46:42;;;;;;;21.10;14.20;;;;;;;-128.00;-1.00;-1.00;101084;1267;1002808;-66
2023/01/17 18:49:10;;;;;;;21.30;14.40;;;;;;;-128.00;-1.00;-1.00;101040;1268;1002583;-67
2023/01/17 18:51:37;;;;;;;20.80;14.60;;;;;;;-128.00;-1.00;-1.00;100887;1268;1013322;-67
2023/01/17 18:54:04;;;;;;;20.40;15.30;;;;;;;-128.00;-1.00;-1.00;100803;1267;1002511;-67
2023/01/17 18:56:33;;;;;;;22.60;14.90;;;;;;;-128.00;-1.00;-1.00;100732;1266;1011101;-65
2023/01/17 18:59:01;;;;;;;;;;;;;;;-128.00;-1.00;-1.00;101034;1267;1003022;-67
2023/01/17 19:01:29;;;;;;;19.60;15.50;;;;;;;-128.00;-1.00;-1.00;100803;1273;1003029;-68
2023/01/17 19:04:01;;;;;;;19.90;14.60;;;;;;;-128.00;-1.00;-1.00;100969;1270;1014464;-67
2023/01/17 19:06:31;;;;;;;19.50;14.40;;;;;;;-128.00;-1.00;-1.00;100944;1268;1010093;-68
2023/01/17 19:08:58;;;;;;;21.50;14.40;;;;;;;-128.00;-1.00;-1.00;100778;1268;1012572;-65
2023/01/17 19:11:25;;;;;;;18.00;14.30;;;;;;;-128.00;-1.00;-1.00;100842;1271;1004910;-68
2023/01/17 19:13:53;;;;;;;18.70;14.20;;;;;;;-128.00;-1.00;-1.00;100709;1268;1003997;-68
2023/01/17 19:16:23;;;;;;;18.90;14.10;;;;;;;-128.00;-1.00;-1.00;101217;1264;1003186;-66
2023/01/17 19:18:51;;;;;;;20.30;12.70;;;;;;;-128.00;-1.00;-1.00;101399;1264;1011358;-68
2023/01/17 19:21:19;;;;;;;17.20;13.50;;;;;;;-128.00;-1.00;-1.00;101348;1264;1004274;-67
2023/01/17 19:23:50;;;;;;;20.40;13.70;;;;;;;-128.00;-1.00;-1.00;101255;1265;1012583;-68
2023/01/17 19:26:19;;;;;;;24.20;17.60;;;;;;;-128.00;-1.00;-1.00;101369;1264;1002245;-67
2023/01/17 19:28:47;;;;;;;29.30;20.50;;;;;;;-128.00;-1.00;-1.00;101279;1271;1016082;-64
2023/01/17 19:31:16;;;;;;;25.00;17.90;;;;;;;-128.00;-1.00;-1.00;101410;1263;1002847;-69
2023/01/17 19:33:44;;;;;;;23.90;17.10;;;;;;;-128.00;-1.00;-1.00;101119;1263;1013780;-71
2023/01/17 19:36:15;;;;;;;;;;;;;;;-128.00;-1.00;-1.00;101540;1263;1003268;-68
2023/01/17 19:38:43;;;;;;;24.10;16.00;;;;;;;-128.00;-1.00;-1.00;101231;1264;1013392;-70
2023/01/17 19:41:29;;;;;;;23.10;14.30;;;;;;;-128.00;-1.00;-1.00;101628;1258;1012875;-70
2023/01/17 19:43:58;;;;;;;21.60;14.30;;;;;;;-128.00;-1.00;-1.00;101684;1255;1002731;-69
2023/01/17 19:46:26;;;;;;;18.60;13.70;;;;;;;-128.00;-1.00;-1.00;101640;1258;1014361;-70
2023/01/17 19:48:54;;;;;;;19.60;14.00;;;;;;;-128.00;-1.00;-1.00;101674;1257;1013099;-66
2023/01/17 19:51:21;;;;;;;18.80;13.80;;;;;;;-128.00;-1.00;-1.00;101728;1258;1002761;-68
2023/01/17 19:53:48;;;;;;;17.70;12.50;;;;;;;-128.00;-1.00;-1.00;101639;1259;1004478;-67
2023/01/17 19:56:18;;;;;;;18.20;13.10;;;;;;;-128.00;-1.00;-1.00;101752;1255;1002235;-66
2023/01/17 19:58:46;;;;;;;16.60;12.70;;;;;;;-128.00;-1.00;-1.00;101669;1261;1011278;-68
2023/01/17 20:01:15;;;;;;;16.80;13.00;;;;;;;-128.00;-1.00;-1.00;101596;1255;1013348;-66
